Time;durP1;ratioP1;P1;durP2;ratioP2;P2;SDS_P1;SDS_P2;PMS_P1;PMS_P2;Temp;Humidity;BMP_temperature;BMP_pressure;BME280_temperature;BME280_humidity;BME280_pressure;Samples;Min_cycle;Max_cycle;Signal;HPM_P1;HPM_P2
2021/08/26 00:00:32;;;;;;;;;18.00;16.50;;;;;18.70;61.60;101625.34;5032203;28;46365;-75
2021/08/26 00:08:11;;;;;;;;;19.50;17.75;;;;;18.67;61.81;101636.13;5033768;28;45886;-75
2021/08/26 00:10:38;;;;;;;;;21.50;18.50;;;;;18.64;62.79;101636.34;5032874;28;47027;-74
2021/08/26 00:13:06;;;;;;;;;18.25;17.50;;;;;18.55;63.05;101628.06;5033066;28;45495;-75
2021/08/26 00:15:32;;;;;;;;;18.75;18.00;;;;;18.58;63.21;101646.50;5033275;28;45602;-75
2021/08/26 00:17:58;;;;;;;;;23.25;17.50;;;;;18.56;62.71;101648.41;5031715;28;45383;-75
2021/08/26 00:20:25;;;;;;;;;22.75;18.75;;;;;18.54;63.29;101639.69;5032559;28;46059;-75
2021/08/26 00:22:50;;;;;;;;;19.75;17.75;;;;;18.50;63.93;101647.00;5032716;28;45791;-75
2021/08/26 00:25:16;;;;;;;;;24.25;20.75;;;;;18.48;63.64;101643.59;5032222;28;45502;-74
2021/08/26 00:27:41;;;;;;;;;23.50;20.00;;;;;18.47;63.96;101642.69;5032970;28;45692;-75
2021/08/26 00:30:07;;;;;;;;;20.25;17.00;;;;;18.46;63.97;101646.31;5032598;28;46185;-74
2021/08/26 00:32:32;;;;;;;;;21.00;18.50;;;;;18.44;64.03;101645.56;5032281;28;45534;-75
2021/08/26 00:34:58;;;;;;;;;23.25;20.50;;;;;18.43;63.56;101649.19;5032418;28;45498;-75
2021/08/26 00:37:23;;;;;;;;;22.75;20.75;;;;;18.37;64.55;101651.34;5033394;28;45526;-74
2021/08/26 00:39:49;;;;;;;;;24.00;21.00;;;;;18.37;64.30;101646.00;5033128;28;47000;-75
2021/08/26 00:42:15;;;;;;;;;21.25;18.50;;;;;18.32;64.52;101653.44;5032840;28;45514;-75
2021/08/26 00:44:40;;;;;;;;;21.25;18.25;;;;;18.24;64.87;101648.59;5032110;28;45450;-75
2021/08/26 00:47:08;;;;;;;;;24.75;20.00;;;;;18.22;65.30;101643.38;5032639;28;45478;-74
2021/08/26 00:49:33;;;;;;;;;21.25;18.00;;;;;18.20;65.65;101649.72;5032003;28;45641;-74
2021/08/26 00:52:00;;;;;;;;;22.25;18.00;;;;;18.16;65.28;101642.84;4990576;28;1247467;-75
2021/08/26 00:54:26;;;;;;;;;19.75;17.00;;;;;18.13;65.42;101649.22;5033859;28;45506;-75
2021/08/26 00:56:52;;;;;;;;;23.00;18.00;;;;;18.10;65.01;101646.75;5033052;28;45701;-75
2021/08/26 00:59:18;;;;;;;;;18.25;16.25;;;;;18.04;65.59;101638.28;5033220;28;45432;-75
2021/08/26 01:01:59;;;;;;;;;18.75;17.50;;;;;18.02;65.82;101630.41;5033439;28;45474;-75
2021/08/26 01:04:51;;;;;;;;;21.75;17.50;;;;;17.98;66.11;101635.03;5032009;28;45471;-75
2021/08/26 01:07:26;;;;;;;;;20.25;18.50;;;;;17.98;66.61;101635.03;5041973;28;45331;-75
2021/08/26 01:09:59;;;;;;;;;16.50;15.25;;;;;17.90;65.52;101621.34;5034804;28;45843;-75
2021/08/26 01:12:24;;;;;;;;;17.00;14.75;;;;;17.91;65.74;101639.03;5033025;28;45409;-75
2021/08/26 01:14:51;;;;;;;;;16.00;16.00;;;;;17.82;66.51;101630.72;5033536;28;45407;-75
2021/08/26 01:17:24;;;;;;;;;18.25;14.25;;;;;17.83;66.25;101635.09;5033639;28;45475;-75
2021/08/26 01:19:49;;;;;;;;;11.25;11.00;;;;;17.73;66.49;101610.84;5033349;28;45502;-75
2021/08/26 01:22:23;;;;;;;;;14.50;13.25;;;;;17.77;66.94;101624.81;5033297;28;45482;-75
2021/08/26 01:24:58;;;;;;;;;12.75;12.00;;;;;17.75;66.86;101619.59;5034265;28;45511;-75
2021/08/26 01:27:26;;;;;;;;;12.25;11.25;;;;;17.73;67.15;101622.34;5033736;28;45534;-75
2021/08/26 01:29:52;;;;;;;;;14.75;14.50;;;;;17.72;67.11;101628.59;5033927;28;46101;-75
2021/08/26 01:32:22;;;;;;;;;16.25;12.50;;;;;17.69;66.96;101623.41;5033188;28;45684;-75
2021/08/26 01:34:49;;;;;;;;;10.25;10.25;;;;;17.67;66.76;101612.03;5033363;28;45425;-74
2021/08/26 01:37:19;;;;;;;;;12.75;11.75;;;;;17.65;67.27;101613.94;5032439;28;45478;-75
2021/08/26 01:39:46;;;;;;;;;13.50;9.50;;;;;17.63;67.26;101614.97;5033545;28;46501;-75
2021/08/26 01:42:11;;;;;;;;;13.50;11.25;;;;;17.61;66.57;101607.09;5035397;28;45510;-75
2021/08/26 01:44:37;;;;;;;;;13.75;10.00;;;;;17.58;67.26;101601.94;5032400;28;45511;-75
2021/08/26 01:47:09;;;;;;;;;14.00;11.50;;;;;17.56;67.01;101603.84;5033982;28;45337;-74
2021/08/26 01:49:34;;;;;;;;;9.25;7.75;;;;;17.53;67.20;101609.31;5032579;28;46942;-75
2021/08/26 01:52:00;;;;;;;;;12.00;11.50;;;;;17.51;67.59;101607.72;5033006;28;45736;-75
2021/08/26 01:54:25;;;;;;;;;11.75;10.25;;;;;17.48;67.52;101612.25;5033074;28;45609;-74
2021/08/26 01:56:51;;;;;;;;;11.75;11.50;;;;;17.28;67.55;101575.38;5032924;28;45468;-76
2021/08/26 01:59:16;;;;;;;;;11.50;10.00;;;;;17.44;67.57;101607.22;5032511;28;46539;-76
2021/08/26 02:01:41;;;;;;;;;12.25;12.25;;;;;17.34;67.93;101596.25;5031458;28;54845;-76
2021/08/26 02:04:08;;;;;;;;;12.50;10.00;;;;;17.38;68.24;101599.56;5033628;28;45619;-75
2021/08/26 02:06:33;;;;;;;;;11.25;10.75;;;;;17.40;68.36;101603.88;5033401;28;45537;-74
2021/08/26 02:08:58;;;;;;;;;12.50;11.50;;;;;17.39;68.41;101606.63;5033048;28;46331;-75
2021/08/26 02:11:24;;;;;;;;;13.50;11.50;;;;;17.37;68.74;101604.03;5032873;28;45462;-75
2021/08/26 02:13:49;;;;;;;;;12.25;9.75;;;;;17.36;67.81;101602.31;5034594;28;45524;-75
2021/08/26 02:16:14;;;;;;;;;12.00;9.75;;;;;17.33;68.78;101597.22;5036541;28;45357;-75
2021/08/26 02:18:42;;;;;;;;;13.00;11.00;;;;;17.35;68.97;101607.75;5036894;28;46329;-75
2021/08/26 02:21:07;;;;;;;;;12.00;9.75;;;;;17.34;68.59;101608.69;5035733;28;45490;-75
2021/08/26 02:23:32;;;;;;;;;12.75;10.75;;;;;17.35;68.83;101610.41;5038583;28;45554;-75
2021/08/26 02:25:58;;;;;;;;;13.50;12.50;;;;;17.24;68.15;101587.09;5041347;28;45468;-75
2021/08/26 02:28:23;;;;;;;;;10.75;10.25;;;;;17.29;68.76;101606.28;5035933;28;58478;-74
2021/08/26 02:30:48;;;;;;;;;10.25;9.50;;;;;17.27;68.70;101610.81;5037077;28;45381;-75
2021/08/26 02:33:14;;;;;;;;;10.00;9.25;;;;;17.20;68.61;101597.03;5035730;28;45432;-75
2021/08/26 02:35:39;;;;;;;;;12.75;11.75;;;;;17.23;68.89;101609.31;5036217;28;45610;-75
2021/08/26 02:38:04;;;;;;;;;14.50;11.50;;;;;17.19;69.07;101611.28;5036332;28;46093;-75
2021/08/26 02:40:31;;;;;;;;;12.00;9.50;;;;;17.18;69.34;101606.06;5035858;28;45560;-74
2021/08/26 02:42:56;;;;;;;;;12.00;10.50;;;;;17.10;69.46;101606.47;5036497;28;45496;-75
2021/08/26 02:45:22;;;;;;;;;11.00;10.00;;;;;17.12;69.08;101611.69;5035573;28;45587;-75
2021/08/26 02:47:48;;;;;;;;;13.00;10.50;;;;;17.09;69.35;101604.75;5036092;28;45639;-75
2021/08/26 02:50:14;;;;;;;;;13.50;11.50;;;;;17.07;69.85;101611.09;5036093;28;45598;-75
2021/08/26 02:52:39;;;;;;;;;13.25;12.00;;;;;17.07;70.08;101600.47;5035426;28;45518;-75
2021/08/26 02:55:05;;;;;;;;;15.50;12.00;;;;;17.05;69.71;101597.06;5035267;28;45508;-74
2021/08/26 02:57:30;;;;;;;;;11.00;11.00;;;;;17.05;70.15;101594.41;5035784;28;47390;-75
2021/08/26 02:59:55;;;;;;;;;10.50;9.50;;;;;17.04;70.00;101596.19;5035620;28;47296;-75
2021/08/26 03:02:20;;;;;;;;;13.00;11.00;;;;;17.00;69.73;101588.47;5035214;28;45432;-75
2021/08/26 03:04:46;;;;;;;;;12.75;11.75;;;;;17.03;69.65;101596.28;5036156;28;47793;-75
2021/08/26 03:07:11;;;;;;;;;17.75;10.25;;;;;16.99;69.77;101595.59;5034527;28;47949;-75
2021/08/26 03:09:36;;;;;;;;;11.25;9.75;;;;;16.99;70.24;101602.72;5036246;28;45454;-75
2021/08/26 03:12:05;;;;;;;;;14.00;10.50;;;;;16.88;70.86;101584.72;5035161;28;47716;-75
2021/08/26 03:14:30;;;;;;;;;10.50;10.00;;;;;16.92;69.90;101597.75;5034807;28;45538;-75
2021/08/26 03:16:55;;;;;;;;;12.50;11.25;;;;;16.92;70.08;101597.75;5036124;28;46053;-75
2021/08/26 03:19:20;;;;;;;;;11.67;10.67;;;;;16.91;70.84;101596.03;5034801;28;63457;-75
2021/08/26 03:21:46;;;;;;;;;8.75;8.75;;;;;16.89;70.62;101591.75;5034736;28;45562;-75
2021/08/26 03:24:11;;;;;;;;;12.00;11.00;;;;;16.88;70.86;101595.34;5034359;28;45577;-76
2021/08/26 03:26:36;;;;;;;;;14.00;12.75;;;;;16.86;70.22;101584.81;5035240;28;58140;-75
2021/08/26 03:29:02;;;;;;;;;13.75;12.75;;;;;16.84;70.41;101592.00;5035307;28;45482;-75
2021/08/26 03:31:27;;;;;;;;;10.25;10.25;;;;;16.82;70.77;101585.94;5034712;28;45490;-75
2021/08/26 03:33:53;;;;;;;;;15.50;10.75;;;;;16.81;71.02;101584.22;5036350;28;45360;-75
2021/08/26 03:36:18;;;;;;;;;12.25;9.75;;;;;16.80;70.52;101585.13;5035051;28;46457;-75
2021/08/26 03:38:43;;;;;;;;;12.25;9.50;;;;;16.78;70.94;101591.50;5034670;28;45403;-74
2021/08/26 03:41:09;;;;;;;;;12.00;10.75;;;;;16.69;71.04;101580.38;5035149;28;45464;-74
2021/08/26 03:43:34;;;;;;;;;9.25;8.50;;;;;16.51;70.72;101556.69;5034893;28;45402;-75
2021/08/26 03:45:59;;;;;;;;;14.50;11.75;;;;;16.70;71.46;101591.84;5035359;28;45401;-74
2021/08/26 03:48:25;;;;;;;;;12.25;10.00;;;;;16.67;70.96;101584.09;5034592;28;46962;-75
2021/08/26 03:50:50;;;;;;;;;11.50;8.25;;;;;16.70;71.42;101598.06;5033743;28;56533;-74
2021/08/26 03:53:15;;;;;;;;;11.75;11.00;;;;;16.69;71.04;101596.31;5033896;28;45728;-74
2021/08/26 03:55:41;;;;;;;;;8.25;7.25;;;;;16.61;71.02;101581.78;5035129;28;45588;-75
2021/08/26 03:58:06;;;;;;;;;10.50;7.75;;;;;16.66;71.35;101588.53;5035205;28;45412;-75
2021/08/26 04:00:31;;;;;;;;;10.00;9.00;;;;;16.64;70.99;101589.53;5035191;28;45392;-74
2021/08/26 04:02:56;;;;;;;;;12.25;9.50;;;;;16.60;70.85;101596.84;5016210;28;45559;-75
2021/08/26 04:05:22;;;;;;;;;7.75;7.75;;;;;16.57;71.49;101591.69;5034349;28;45770;-75
2021/08/26 04:07:47;;;;;;;;;10.50;8.50;;;;;16.33;71.31;101553.22;5034278;28;45487;-75
2021/08/26 04:10:12;;;;;;;;;13.50;8.75;;;;;16.53;71.67;101597.25;5035109;28;46833;-75
2021/08/26 04:12:38;;;;;;;;;10.50;9.00;;;;;16.48;71.68;101589.53;5034728;28;45530;-75
2021/08/26 04:15:04;;;;;;;;;11.25;8.00;;;;;16.51;71.75;101599.13;5034451;28;46140;-75
2021/08/26 04:17:29;;;;;;;;;12.75;10.25;;;;;16.48;71.86;101594.84;5035086;28;45578;-74
2021/08/26 04:19:54;;;;;;;;;10.00;10.00;;;;;16.46;71.81;101599.38;5038768;28;45528;-74
2021/08/26 04:22:20;;;;;;;;;11.75;7.75;;;;;16.44;71.52;101603.88;5033625;28;53962;-75
2021/08/26 04:24:45;;;;;;;;;10.25;9.50;;;;;16.37;71.92;101592.75;5035710;28;46104;-74
2021/08/26 04:27:10;;;;;;;;;10.50;9.25;;;;;16.39;71.61;101606.81;5034932;28;49393;-75
2021/08/26 04:29:36;;;;;;;;;9.00;9.00;;;;;16.37;71.88;101595.41;5034723;28;45533;-75
2021/08/26 04:32:02;;;;;;;;;8.50;6.75;;;;;16.32;71.75;101593.94;5037179;28;45443;-75
2021/08/26 04:34:27;;;;;;;;;8.25;7.00;;;;;16.34;71.91;101595.59;5038389;28;46411;-76
2021/08/26 04:36:53;;;;;;;;;8.75;7.00;;;;;16.32;71.96;101594.78;5034492;28;45534;-75
2021/08/26 04:39:19;;;;;;;;;11.75;9.25;;;;;16.29;72.01;101594.97;5035089;28;45441;-74
2021/08/26 04:41:44;;;;;;;;;7.00;7.00;;;;;16.31;71.98;101586.94;5033586;28;45501;-76
2021/08/26 04:44:09;;;;;;;;;6.25;6.25;;;;;16.32;72.20;101586.00;5032338;28;45518;-74
2021/08/26 04:46:35;;;;;;;;;10.50;8.25;;;;;16.34;72.07;101584.09;5034122;28;46718;-74
2021/08/26 04:49:00;;;;;;;;;8.00;8.00;;;;;16.37;72.38;101586.59;5034771;28;45447;-75
2021/08/26 04:51:25;;;;;;;;;6.00;6.00;;;;;16.42;72.13;101590.72;5033555;28;45672;-75
2021/08/26 04:53:51;;;;;;;;;6.75;5.50;;;;;16.44;72.07;101580.91;5032769;28;45722;-75
2021/08/26 04:56:16;;;;;;;;;7.00;6.00;;;;;16.43;72.38;101580.94;5033974;28;57813;-75
2021/08/26 04:58:42;;;;;;;;;5.00;5.00;;;;;16.48;72.39;101588.66;5035009;28;45561;-75
2021/08/26 05:01:07;;;;;;;;;6.00;5.50;;;;;16.50;72.23;101578.84;5034325;28;45530;-75
2021/08/26 05:03:32;;;;;;;;;4.25;4.00;;;;;16.53;72.08;101589.28;5033660;28;46082;-75
2021/08/26 05:05:58;;;;;;;;;4.75;4.25;;;;;16.54;72.06;101585.69;5033603;28;45321;-75
2021/08/26 05:08:23;;;;;;;;;5.25;4.50;;;;;16.59;71.94;101588.94;5033531;28;45341;-75
2021/08/26 05:10:49;;;;;;;;;5.00;4.75;;;;;16.62;72.16;101597.59;5032863;28;64652;-74
2021/08/26 05:13:14;;;;;;;;;5.00;4.00;;;;;16.64;72.22;101582.44;5033924;28;46071;-75
2021/08/26 05:15:39;;;;;;;;;5.25;3.25;;;;;16.69;71.76;101585.69;5032671;28;65669;-75
2021/08/26 05:18:07;;;;;;;;;3.00;3.00;;;;;16.75;71.70;101581.88;5033137;28;46790;-76
2021/08/26 05:20:33;;;;;;;;;6.50;5.00;;;;;16.82;72.27;101582.41;5033260;28;45714;-75
2021/08/26 05:22:58;;;;;;;;;4.00;4.00;;;;;16.87;71.83;101578.56;5033754;28;45530;-75
2021/08/26 05:25:24;;;;;;;;;5.00;5.00;;;;;16.93;72.04;101583.53;5016217;28;45462;-75
2021/08/26 05:27:50;;;;;;;;;4.25;4.25;;;;;16.78;71.53;101547.22;5034681;28;45505;-75
2021/08/26 05:30:15;;;;;;;;;4.50;2.25;;;;;16.89;71.53;101557.22;5033687;28;45643;-75
2021/08/26 05:32:40;;;;;;;;;3.00;3.00;;;;;17.09;71.84;101587.97;5033739;28;46627;-75
2021/08/26 05:35:06;;;;;;;;;3.00;3.00;;;;;17.18;71.73;101587.47;5032298;28;45545;-74
2021/08/26 05:37:32;;;;;;;;;3.50;3.00;;;;;17.24;71.44;101594.22;5015417;28;45509;-76
2021/08/26 05:39:57;;;;;;;;;4.00;4.00;;;;;17.30;71.20;101592.06;5033542;28;45475;-74
2021/08/26 05:42:23;;;;;;;;;2.75;2.75;;;;;17.29;71.17;101576.22;5033479;28;46291;-76
2021/08/26 05:44:48;;;;;;;;;3.50;2.75;;;;;17.41;71.37;101588.78;5032984;28;45439;-75
2021/08/26 05:47:14;;;;;;;;;4.75;4.00;;;;;17.46;70.56;101587.56;5033529;28;49616;-74
2021/08/26 05:49:39;;;;;;;;;4.00;4.00;;;;;17.47;71.13;101591.06;5032699;28;49392;-75
2021/08/26 05:52:05;;;;;;;;;4.25;3.00;;;;;17.51;70.67;101586.44;5033003;28;45404;-75
2021/08/26 05:54:30;;;;;;;;;4.75;2.50;;;;;17.54;70.79;101579.16;5032968;28;45466;-75
2021/08/26 05:56:58;;;;;;;;;4.00;4.00;;;;;17.53;70.80;101573.91;5033134;28;45403;-75
2021/08/26 05:59:24;;;;;;;;;2.75;2.75;;;;;17.62;71.21;101584.88;5033357;28;45291;-75
2021/08/26 06:01:49;;;;;;;;;3.25;3.00;;;;;17.63;70.67;101578.59;5031487;28;45541;-76
2021/08/26 06:04:15;;;;;;;;;4.00;2.50;;;;;17.70;71.19;101589.75;5013948;28;45529;-76
2021/08/26 06:06:40;;;;;;;;;3.00;3.00;;;;;17.74;70.88;101584.16;5033088;28;45388;-75
2021/08/26 06:09:05;;;;;;;;;2.25;2.25;;;;;17.77;70.68;101587.59;5034012;28;45510;-75
2021/08/26 06:11:31;;;;;;;;;2.00;2.00;;;;;17.81;71.12;101586.47;5031403;28;59360;-75
2021/08/26 06:13:56;;;;;;;;;3.25;2.25;;;;;17.85;70.71;101591.50;5033475;28;45305;-76
2021/08/26 06:16:21;;;;;;;;;3.25;2.75;;;;;17.88;70.62;101590.47;5033338;28;45364;-75
2021/08/26 06:18:47;;;;;;;;;4.75;2.25;;;;;17.92;70.87;101590.19;5034144;28;45494;-75
2021/08/26 06:21:15;;;;;;;;;3.00;3.00;;;;;17.96;70.69;101591.72;5011405;28;47278;-75
2021/08/26 06:23:40;;;;;;;;;3.50;2.75;;;;;17.99;69.97;101591.53;5027727;28;46132;-75
2021/08/26 06:26:06;;;;;;;;;3.25;3.25;;;;;17.99;70.32;101588.03;5034700;28;45388;-75
2021/08/26 06:28:31;;;;;;;;;5.75;4.00;;;;;18.03;70.00;101586.91;5033391;28;45419;-75
2021/08/26 06:30:56;;;;;;;;;4.25;4.25;;;;;18.10;70.03;101592.69;5032374;28;45981;-75
2021/08/26 06:33:22;;;;;;;;;6.00;6.00;;;;;18.14;69.75;101595.06;5032164;28;54442;-75
2021/08/26 06:35:47;;;;;;;;;3.00;3.00;;;;;18.22;70.24;101586.63;5032457;28;45706;-76
2021/08/26 06:38:12;;;;;;;;;4.00;3.00;;;;;18.30;70.46;101583.50;5039030;28;54913;-76
2021/08/26 06:40:38;;;;;;;;;3.75;2.25;;;;;18.45;69.67;101588.72;5032542;28;46193;-77
2021/08/26 06:43:03;;;;;;;;;3.50;2.75;;;;;18.61;69.95;101590.41;5033215;28;45541;-76
2021/08/26 06:45:28;;;;;;;;;4.25;3.00;;;;;18.72;69.82;101588.81;5033098;28;45971;-77
2021/08/26 06:47:54;;;;;;;;;1.00;1.00;;;;;18.85;69.22;101588.06;5033170;28;45490;-76
2021/08/26 06:50:19;;;;;;;;;3.25;3.25;;;;;18.87;68.69;101584.31;5032293;28;60419;-76
2021/08/26 06:52:44;;;;;;;;;3.50;2.00;;;;;18.96;68.92;101588.22;5032753;28;45534;-77
2021/08/26 06:55:10;;;;;;;;;3.50;2.25;;;;;19.04;68.89;101588.56;5033070;28;45345;-77
2021/08/26 06:57:35;;;;;;;;;2.75;1.75;;;;;19.10;68.71;101593.47;5033227;28;45400;-76
2021/08/26 07:00:00;;;;;;;;;3.00;2.50;;;;;19.07;68.86;101574.19;5033608;28;46282;-74
2021/08/26 07:02:26;;;;;;;;;4.50;2.00;;;;;19.16;68.73;101581.56;5035937;28;46101;-76
2021/08/26 07:04:51;;;;;;;;;3.00;2.25;;;;;19.17;68.46;101580.63;5036013;28;50313;-76
2021/08/26 07:07:17;;;;;;;;;2.25;2.25;;;;;19.23;68.65;101583.75;5031996;28;45843;-76
2021/08/26 07:09:42;;;;;;;;;4.00;2.00;;;;;19.28;68.60;101589.63;5033857;28;55413;-76
2021/08/26 07:12:07;;;;;;;;;3.00;2.00;;;;;19.38;68.18;101591.69;5034874;28;45645;-75
2021/08/26 07:14:33;;;;;;;;;3.00;2.00;;;;;19.39;68.40;101572.91;5031839;28;45340;-73
2021/08/26 07:16:58;;;;;;;;;5.75;2.50;;;;;19.51;68.09;101580.09;5042027;28;45557;-76
2021/08/26 07:19:23;;;;;;;;;2.25;2.00;;;;;19.59;68.03;101586.72;5031419;28;45460;-75
2021/08/26 07:21:49;;;;;;;;;4.25;4.25;;;;;19.60;68.22;101581.31;5034628;28;50066;-76
2021/08/26 07:24:15;;;;;;;;;3.00;3.00;;;;;19.59;67.67;101582.28;5032695;28;45982;-75
2021/08/26 07:26:41;;;;;;;;;3.00;3.00;;;;;19.60;67.66;101578.66;5030526;28;45486;-75
2021/08/26 07:29:07;;;;;;;;;2.00;2.00;;;;;19.69;67.62;101580.69;5032604;28;45925;-75
2021/08/26 07:31:32;;;;;;;;;3.25;3.00;;;;;19.91;67.99;101579.22;5031598;28;45630;-76
2021/08/26 07:33:57;;;;;;;;;3.25;3.25;;;;;20.12;67.16;101580.41;5035929;28;45611;-75
2021/08/26 07:36:22;;;;;;;;;2.75;2.50;;;;;20.23;67.27;101574.31;5032139;28;45657;-75
2021/08/26 07:38:48;;;;;;;;;4.50;3.75;;;;;20.31;66.58;101580.84;5027712;28;45530;-75
2021/08/26 07:41:13;;;;;;;;;2.00;2.00;;;;;20.31;66.42;101563.97;5031471;28;45615;-76
2021/08/26 07:43:38;;;;;;;;;2.00;2.00;;;;;20.40;66.13;101570.47;5032431;28;45646;-75
2021/08/26 07:46:05;;;;;;;;;1.50;1.50;;;;;20.42;65.89;101577.41;5034076;28;45687;-75
2021/08/26 07:48:31;;;;;;;;;1.00;1.00;;;;;20.44;66.26;101572.81;5031396;28;46175;-75
2021/08/26 07:50:58;;;;;;;;;4.50;1.75;;;;;20.51;66.00;101576.75;5034313;28;45646;-75
2021/08/26 07:53:24;;;;;;;;;2.25;0.75;;;;;20.54;66.37;101581.03;5033957;28;45336;-75
2021/08/26 07:55:49;;;;;;;;;3.00;1.75;;;;;20.57;65.83;101581.69;5034671;28;45497;-75
2021/08/26 07:58:14;;;;;;;;;3.50;3.00;;;;;20.56;65.94;101582.63;5034420;28;46089;-76
2021/08/26 08:00:40;;;;;;;;;6.00;4.00;;;;;20.58;66.00;101575.38;5033538;28;58280;-75
2021/08/26 08:03:05;;;;;;;;;2.00;2.00;;;;;20.77;65.92;101582.06;5042814;28;45559;-75
2021/08/26 08:05:31;;;;;;;;;3.75;2.50;;;;;20.94;65.24;101579.03;5041090;28;45487;-75
2021/08/26 08:07:57;;;;;;;;;9.25;4.25;;;;;21.09;65.20;101577.06;5034952;28;46312;-75
2021/08/26 08:10:23;;;;;;;;;1.50;1.50;;;;;21.15;65.29;101586.44;5034309;28;45580;-75
2021/08/26 08:12:48;;;;;;;;;8.25;3.25;;;;;21.20;65.06;101574.44;5033874;28;45467;-75
2021/08/26 08:15:13;;;;;;;;;5.00;4.00;;;;;21.22;64.85;101580.50;5034043;28;52345;-75
2021/08/26 08:17:39;;;;;;;;;4.50;4.50;;;;;21.22;64.32;101577.84;5034940;28;46168;-75
2021/08/26 08:20:06;;;;;;;;;9.50;5.00;;;;;21.20;64.27;101579.78;5034998;28;45545;-76
2021/08/26 08:22:31;;;;;;;;;5.00;5.00;;;;;21.34;64.18;101576.09;5035134;28;45418;-75
2021/08/26 08:24:57;;;;;;;;;4.00;4.00;;;;;21.41;63.87;101569.34;5033756;28;45598;-75
2021/08/26 08:27:22;;;;;;;;;3.75;3.00;;;;;21.47;63.80;101584.06;5033386;28;45417;-74
2021/08/26 08:29:48;;;;;;;;;6.75;3.75;;;;;21.63;63.91;101580.09;5033755;28;45522;-74
2021/08/26 08:32:14;;;;;;;;;5.25;4.50;;;;;21.79;63.06;101577.09;5033618;28;45624;-75
2021/08/26 08:34:40;;;;;;;;;4.50;4.50;;;;;21.89;63.08;101577.25;5034249;28;45474;-75
2021/08/26 08:37:05;;;;;;;;;5.00;3.75;;;;;21.91;63.08;101575.28;5034998;28;45554;-75
2021/08/26 08:39:30;;;;;;;;;6.75;5.00;;;;;21.96;62.83;101574.94;5034567;28;45368;-74
2021/08/26 08:41:56;;;;;;;;;3.75;3.75;;;;;22.05;62.85;101576.91;5033752;28;45570;-75
2021/08/26 08:44:21;;;;;;;;;7.50;3.75;;;;;22.16;62.55;101581.47;5034757;28;45333;-75
2021/08/26 08:46:48;;;;;;;;;4.00;4.00;;;;;22.17;62.16;101573.31;5033671;28;45685;-75
2021/08/26 08:49:18;;;;;;;;;3.50;3.50;;;;;22.12;61.94;101579.00;5033912;28;45427;-75
2021/08/26 08:51:43;;;;;;;;;6.00;5.25;;;;;22.07;62.26;101581.16;5033468;28;45648;-75
2021/08/26 08:54:09;;;;;;;;;5.25;3.75;;;;;22.19;62.23;101589.25;5033905;28;45496;-75
2021/08/26 08:56:34;;;;;;;;;4.75;2.50;;;;;22.24;61.86;101579.00;5032661;28;46093;-75
2021/08/26 08:59:00;;;;;;;;;6.00;4.50;;;;;22.27;62.49;101581.47;5029468;28;52652;-75
2021/08/26 09:01:26;;;;;;;;;9.50;5.00;;;;;22.35;62.35;101587.94;5033738;28;45565;-75
2021/08/26 09:03:52;;;;;;;;;4.25;4.00;;;;;22.54;62.16;101570.38;5034103;28;45533;-74
2021/08/26 09:06:17;;;;;;;;;6.00;5.00;;;;;22.86;61.56;101579.34;5033757;28;45446;-75
2021/08/26 09:09:00;;;;;;;;;3.75;3.75;;;;;23.09;61.07;101566.78;5034345;28;45467;-75
2021/08/26 09:11:27;;;;;;;;;5.00;4.50;;;;;23.24;60.50;101575.38;5034152;28;45392;-76
2021/08/26 09:13:52;;;;;;;;;4.50;4.00;;;;;23.26;60.34;101569.88;5033929;28;45663;-75
2021/08/26 09:16:35;;;;;;;;;6.50;5.25;;;;;23.27;59.88;101571.59;5034543;28;46845;-75
2021/08/26 09:19:29;;;;;;;;;3.25;3.00;;;;;23.23;60.14;101575.50;5019442;28;45611;-75
2021/08/26 09:21:59;;;;;;;;;4.50;4.00;;;;;23.06;60.14;101576.91;5034094;28;45487;-75
2021/08/26 09:24:45;;;;;;;;;6.75;3.75;;;;;22.93;60.33;101574.38;5034179;28;45374;-75
2021/08/26 09:27:11;;;;;;;;;5.50;3.00;;;;;22.93;61.09;101577.06;5040108;28;48334;-74
2021/08/26 09:30:00;;;;;;;;;4.00;4.00;;;;;23.04;61.08;101579.72;5033713;28;45414;-75
2021/08/26 09:32:43;;;;;;;;;3.00;2.75;;;;;23.16;60.78;101583.19;5033596;28;45899;-75
2021/08/26 09:35:09;;;;;;;;;5.25;5.00;;;;;23.24;60.20;101580.75;5032500;28;46465;-75
2021/08/26 09:37:40;;;;;;;;;4.67;3.00;;;;;23.40;60.44;101575.81;5039372;28;45296;-74
2021/08/26 09:40:06;;;;;;;;;7.00;4.00;;;;;23.61;60.12;101566.94;5037668;28;45665;-75
2021/08/26 09:42:32;;;;;;;;;5.75;3.00;;;;;23.75;60.04;101571.13;5032604;28;45532;-75
2021/08/26 09:45:14;;;;;;;;;7.00;4.00;;;;;23.86;59.08;101571.09;5032964;28;45507;-75
2021/08/26 09:48:00;;;;;;;;;3.75;2.00;;;;;23.82;58.62;101575.88;5033084;28;46118;-75
2021/08/26 09:50:46;;;;;;;;;3.50;2.00;;;;;23.65;59.19;101568.41;5033324;28;45476;-75
2021/08/26 09:53:14;;;;;;;;;2.00;2.00;;;;;23.56;59.11;101569.16;5033232;28;45504;-75
2021/08/26 09:55:51;;;;;;;;;3.00;3.00;;;;;23.59;59.29;101559.00;5033753;28;45410;-75
2021/08/26 09:58:21;;;;;;;;;4.00;3.00;;;;;23.53;59.63;101567.56;5014723;28;47210;-75
2021/08/26 10:00:47;;;;;;;;;6.25;2.00;;;;;23.53;59.67;101564.88;5033818;28;45373;-75
2021/08/26 10:03:14;;;;;;;;;4.00;2.00;;;;;23.56;60.04;101567.31;5033232;28;45402;-75
2021/08/26 10:05:44;;;;;;;;;4.75;2.25;;;;;23.65;60.09;101568.41;5032855;28;45681;-75
2021/08/26 10:08:11;;;;;;;;;4.00;3.00;;;;;23.71;59.87;101537.50;5029220;28;46379;-75
2021/08/26 10:10:39;;;;;;;;;2.00;2.00;;;;;24.06;59.49;101566.66;5030736;28;45843;-75
2021/08/26 10:13:06;;;;;;;;;1.50;1.50;;;;;24.08;59.51;101562.03;5030359;28;45711;-75
2021/08/26 10:15:32;;;;;;;;;2.75;1.75;;;;;24.32;60.01;101553.63;5028476;28;45616;-75
2021/08/26 10:17:58;;;;;;;;;5.00;2.75;;;;;24.78;59.14;101546.88;5028519;28;45461;-75
2021/08/26 10:20:23;;;;;;;;;3.00;1.00;;;;;25.14;58.26;101548.94;5027128;28;45902;-75
2021/08/26 10:22:51;;;;;;;;;2.00;2.00;;;;;25.35;57.19;101529.13;5021745;28;45892;-75
2021/08/26 10:25:16;;;;;;;;;2.50;1.00;;;;;25.52;56.74;101547.22;5032741;28;45905;-75
2021/08/26 10:27:44;;;;;;;;;1.50;1.50;;;;;25.71;56.63;101544.53;5030687;28;46096;-75
2021/08/26 10:30:27;;;;;;;;;2.25;1.25;;;;;25.90;56.28;101540.97;5027503;28;45950;-75
2021/08/26 10:33:09;;;;;;;;;2.00;0.75;;;;;26.16;55.37;101548.41;5028124;28;45868;-75
2021/08/26 10:35:59;;;;;;;;;2.00;2.00;;;;;25.94;54.56;101547.75;5030487;28;45887;-75
2021/08/26 10:38:28;;;;;;;;;0.50;0.50;;;;;25.47;54.96;101544.97;5030419;28;45552;-74
2021/08/26 10:41:18;;;;;;;;;2.25;1.00;;;;;25.16;55.67;101548.81;5030416;28;45515;-75
2021/08/26 10:43:44;;;;;;;;;0.75;0.75;;;;;25.21;56.14;101551.91;5007182;28;45424;-75
2021/08/26 10:46:13;;;;;;;;;1.50;1.50;;;;;25.22;56.20;101554.50;5032257;28;45533;-75
2021/08/26 10:48:40;;;;;;;;;1.00;1.00;;;;;25.11;56.18;101549.25;5029694;28;46344;-75
2021/08/26 10:51:14;;;;;;;;;1.75;1.00;;;;;24.94;56.25;101552.56;5031219;28;45845;-74
2021/08/26 10:53:41;;;;;;;;;2.50;1.25;;;;;24.71;56.17;101547.44;5023971;28;45833;-75
2021/08/26 10:56:29;;;;;;;;;3.25;1.00;;;;;24.39;56.59;101555.69;5029186;28;45931;-74
2021/08/26 10:58:56;;;;;;;;;0.75;0.75;;;;;24.07;57.07;101563.88;5030788;28;45881;-74
2021/08/26 11:01:28;;;;;;;;;1.00;1.00;;;;;23.83;58.77;101565.97;5031685;28;47174;-74
2021/08/26 11:03:56;;;;;;;;;0.00;0.00;;;;;23.73;58.86;101560.53;5032912;28;45586;-74
2021/08/26 11:06:24;;;;;;;;;2.00;0.75;;;;;23.91;58.93;101560.81;5032749;28;45427;-74
2021/08/26 11:08:54;;;;;;;;;0.00;0.00;;;;;24.16;58.84;101557.66;5031546;28;46452;-74
2021/08/26 11:11:22;;;;;;;;;0.00;0.00;;;;;24.57;58.06;101555.03;5029421;28;45385;-74
2021/08/26 11:13:47;;;;;;;;;0.00;0.00;;;;;24.79;57.20;101549.44;5012291;28;45701;-74
2021/08/26 11:16:25;;;;;;;;;1.00;1.00;;;;;24.97;56.95;101565.75;5032043;28;45470;-73
2021/08/26 11:18:52;;;;;;;;;1.00;1.00;;;;;24.86;56.29;101553.28;5032050;28;45518;-74
2021/08/26 11:21:46;;;;;;;;;1.00;1.00;;;;;24.93;56.25;101561.63;5028659;28;45571;-74
2021/08/26 11:24:14;;;;;;;;;2.00;1.00;;;;;25.08;56.00;101562.97;5029282;28;45498;-74